<?xml version="1.0" encoding="utf-8"?>
<gpx xmlns:xsi="http://www.w3.org/2001/XMLSchema-instance" xmlns:xsd="http://www.w3.org/2001/XMLSchema" version="1.1" creator="Shapelink.com" xmlns="http://www.topografix.com/GPX/1/1" xmlns:gpxtpx="http://www.garmin.com/xmlschemas/TrackPointExtension/v1">
  <metadata>
    <name>Övrigt 2.05 km, 2019-04-23</name>
    <desc></desc>
    <author><name>Marian Moron</name></author> 
    <time>2019-04-23T20:50:00Z</time>
  </metadata>
  <trk>
    <name>Övrigt 2.05 km, 2019-04-23</name>
    <trkseg>
      <trkpt lat="51.229940034637" lon="4.458240744376">
        <ele>0</ele>
        <time>2019-04-23T20:52:13Z</time>
      </trkpt>
      <trkpt lat="51.229954535324" lon="4.458488345702">
        <ele>1.2</ele>
        <time>2019-04-23T20:52:52Z</time>
      </trkpt>
      <trkpt lat="51.229980519214" lon="4.458728487137">
        <ele>0.4</ele>
        <time>2019-04-23T20:53:17Z</time>
      </trkpt>
      <trkpt lat="51.229985632173" lon="4.458770815732">
        <ele>0.2</ele>
        <time>2019-04-23T20:53:20Z</time>
      </trkpt>
      <trkpt lat="51.230035923573" lon="4.458857065483">
        <ele>0</ele>
        <time>2019-04-23T20:53:39Z</time>
      </trkpt>
      <trkpt lat="51.230474716038" lon="4.458698479935">
        <ele>0</ele>
        <time>2019-04-23T20:54:22Z</time>
      </trkpt>
      <trkpt lat="51.230701614071" lon="4.458618600428">
        <ele>1.4</ele>
        <time>2019-04-23T20:54:45Z</time>
      </trkpt>
      <trkpt lat="51.230997662779" lon="4.458538218007">
        <ele>0</ele>
        <time>2019-04-23T20:55:20Z</time>
      </trkpt>
      <trkpt lat="51.231132359912" lon="4.458476108128">
        <ele>0</ele>
        <time>2019-04-23T20:55:56Z</time>
      </trkpt>
      <trkpt lat="51.231203606062" lon="4.458436964655">
        <ele>0</ele>
        <time>2019-04-23T20:56:41Z</time>
      </trkpt>
      <trkpt lat="51.231223387346" lon="4.458367730161">
        <ele>0</ele>
        <time>2019-04-23T20:56:45Z</time>
      </trkpt>
      <trkpt lat="51.231222632975" lon="4.45833009543">
        <ele>0</ele>
        <time>2019-04-23T20:56:49Z</time>
      </trkpt>
      <trkpt lat="51.231185082063" lon="4.458164552905">
        <ele>0</ele>
        <time>2019-04-23T20:57:03Z</time>
      </trkpt>
      <trkpt lat="51.231133198102" lon="4.457440021469">
        <ele>0</ele>
        <time>2019-04-23T20:57:36Z</time>
      </trkpt>
      <trkpt lat="51.231186339348" lon="4.457126203133">
        <ele>0</ele>
        <time>2019-04-23T20:57:51Z</time>
      </trkpt>
      <trkpt lat="51.231240486422" lon="4.456443748835">
        <ele>0</ele>
        <time>2019-04-23T20:58:20Z</time>
      </trkpt>
      <trkpt lat="51.231208886659" lon="4.456427907044">
        <ele>0</ele>
        <time>2019-04-23T20:58:23Z</time>
      </trkpt>
      <trkpt lat="51.231003111014" lon="4.456454980581">
        <ele>0</ele>
        <time>2019-04-23T20:58:39Z</time>
      </trkpt>
      <trkpt lat="51.230934798529" lon="4.456393205978">
        <ele>0.2</ele>
        <time>2019-04-23T20:58:44Z</time>
      </trkpt>
      <trkpt lat="51.230915771616" lon="4.456300502164">
        <ele>17.8</ele>
        <time>2019-04-23T20:59:08Z</time>
      </trkpt>
      <trkpt lat="51.230972349441" lon="4.456161194986">
        <ele>16.2</ele>
        <time>2019-04-23T20:59:22Z</time>
      </trkpt>
      <trkpt lat="51.230940498221" lon="4.456104617161">
        <ele>14.6</ele>
        <time>2019-04-23T20:59:26Z</time>
      </trkpt>
      <trkpt lat="51.230597510873" lon="4.455587453931">
        <ele>2.8</ele>
        <time>2019-04-23T20:59:59Z</time>
      </trkpt>
      <trkpt lat="51.230365667519" lon="4.455346390487">
        <ele>4.6</ele>
        <time>2019-04-23T21:00:23Z</time>
      </trkpt>
      <trkpt lat="51.230342198199" lon="4.455346222849">
        <ele>4.4</ele>
        <time>2019-04-23T21:00:26Z</time>
      </trkpt>
      <trkpt lat="51.230218648993" lon="4.455321160968">
        <ele>2.4</ele>
        <time>2019-04-23T21:00:39Z</time>
      </trkpt>
      <trkpt lat="51.229990493675" lon="4.455192414984">
        <ele>0.2</ele>
        <time>2019-04-23T21:01:09Z</time>
      </trkpt>
      <trkpt lat="51.229963084862" lon="4.45518185379">
        <ele>0</ele>
        <time>2019-04-23T21:01:14Z</time>
      </trkpt>
      <trkpt lat="51.229728726938" lon="4.455108847441">
        <ele>0</ele>
        <time>2019-04-23T21:01:49Z</time>
      </trkpt>
      <trkpt lat="51.229559496377" lon="4.455049503589">
        <ele>0.2</ele>
        <time>2019-04-23T21:02:12Z</time>
      </trkpt>
      <trkpt lat="51.229321115141" lon="4.455006839718">
        <ele>0</ele>
        <time>2019-04-23T21:02:45Z</time>
      </trkpt>
      <trkpt lat="51.229171414407" lon="4.45499996656">
        <ele>0</ele>
        <time>2019-04-23T21:03:05Z</time>
      </trkpt>
      <trkpt lat="51.228729185363" lon="4.454807434317">
        <ele>0</ele>
        <time>2019-04-23T21:03:50Z</time>
      </trkpt>
      <trkpt lat="51.228685934759" lon="4.45478036078">
        <ele>0</ele>
        <time>2019-04-23T21:03:53Z</time>
      </trkpt>
      <trkpt lat="51.228336912443" lon="4.454810703258">
        <ele>0</ele>
        <time>2019-04-23T21:04:41Z</time>
      </trkpt>
      <trkpt lat="51.228044803228" lon="4.454907011289">
        <ele>0.2</ele>
        <time>2019-04-23T21:05:11Z</time>
      </trkpt>
      <trkpt lat="51.227929049189" lon="4.454882368503">
        <ele>0</ele>
        <time>2019-04-23T21:05:27Z</time>
      </trkpt>
      <trkpt lat="51.227874566839" lon="4.454882703779">
        <ele>0</ele>
        <time>2019-04-23T21:05:32Z</time>
      </trkpt>
      <trkpt lat="51.22772109425" lon="4.45521202863">
        <ele>0</ele>
        <time>2019-04-23T21:06:21Z</time>
      </trkpt>
      <trkpt lat="51.227895940684" lon="4.455799683639">
        <ele>0</ele>
        <time>2019-04-23T21:07:03Z</time>
      </trkpt>
      <trkpt lat="51.227910273733" lon="4.455870175418">
        <ele>0</ele>
        <time>2019-04-23T21:07:07Z</time>
      </trkpt>
      <trkpt lat="51.227519006641" lon="4.456220035924">
        <ele>2.6</ele>
        <time>2019-04-23T21:07:57Z</time>
      </trkpt>
      <trkpt lat="51.227466368309" lon="4.456332101927">
        <ele>5.6</ele>
        <time>2019-04-23T21:08:25Z</time>
      </trkpt>
      <trkpt lat="51.22745790259" lon="4.456426230664">
        <ele>5.8</ele>
        <time>2019-04-23T21:08:34Z</time>
      </trkpt>
      <trkpt lat="51.22726595708" lon="4.456552545897">
        <ele>2.4</ele>
        <time>2019-04-23T21:09:20Z</time>
      </trkpt>
      <trkpt lat="51.226845353338" lon="4.456794615169">
        <ele>0</ele>
        <time>2019-04-23T21:10:09Z</time>
      </trkpt>
      <trkpt lat="51.226435729885" lon="4.457063087426">
        <ele>0</ele>
        <time>2019-04-23T21:10:57Z</time>
      </trkpt>
      <trkpt lat="51.226388875064" lon="4.457095273922">
        <ele>0</ele>
        <time>2019-04-23T21:11:04Z</time>
      </trkpt>
      <trkpt lat="51.226005151682" lon="4.457279759541">
        <ele>3</ele>
        <time>2019-04-23T21:11:57Z</time>
      </trkpt>
      <trkpt lat="51.22587791444" lon="4.45737455883">
        <ele>4.4</ele>
        <time>2019-04-23T21:12:15Z</time>
      </trkpt>
      <trkpt lat="51.225868778169" lon="4.457408589344">
        <ele>4</ele>
        <time>2019-04-23T21:12:17Z</time>
      </trkpt>
      <trkpt lat="51.225794346897" lon="4.457575053878">
        <ele>1.8</ele>
        <time>2019-04-23T21:12:31Z</time>
      </trkpt>
      <trkpt lat="51.225607765803" lon="4.458071262358">
        <ele>0</ele>
        <time>2019-04-23T21:13:11Z</time>
      </trkpt>
      <trkpt lat="51.225672390252" lon="4.458343003556">
        <ele>1.4</ele>
        <time>2019-04-23T21:13:36Z</time>
      </trkpt>
      <trkpt lat="51.225964750924" lon="4.458736114666">
        <ele>8.8</ele>
        <time>2019-04-23T21:14:28Z</time>
      </trkpt>
      <trkpt lat="51.226009174994" lon="4.458852958352">
        <ele>8.2</ele>
        <time>2019-04-23T21:14:36Z</time>
      </trkpt>
      <trkpt lat="51.226033231047" lon="4.458891431273">
        <ele>8</ele>
        <time>2019-04-23T21:14:39Z</time>
      </trkpt>
      <trkpt lat="51.226098106953" lon="4.459049430088">
        <ele>8.6</ele>
        <time>2019-04-23T21:14:50Z</time>
      </trkpt>
      <trkpt lat="51.226256021949" lon="4.459732303481">
        <ele>10.8</ele>
        <time>2019-04-23T21:15:29Z</time>
      </trkpt>
      <trkpt lat="51.226322909511" lon="4.459930619235">
        <ele>5.4</ele>
        <time>2019-04-23T21:15:47Z</time>
      </trkpt>
      <trkpt lat="51.226510496433" lon="4.460450129397">
        <ele>2</ele>
        <time>2019-04-23T21:16:40Z</time>
      </trkpt>
      <trkpt lat="51.226643433367" lon="4.460862937972">
        <ele>0.4</ele>
        <time>2019-04-23T21:17:13Z</time>
      </trkpt>
      <trkpt lat="51.22672280996" lon="4.461197962515">
        <ele>0.8</ele>
        <time>2019-04-23T21:17:35Z</time>
      </trkpt>
      <trkpt lat="51.226830517375" lon="4.461514211602">
        <ele>0</ele>
        <time>2019-04-23T21:17:57Z</time>
      </trkpt>
      <trkpt lat="51.227261011759" lon="4.461339365168">
        <ele>2</ele>
        <time>2019-04-23T21:18:41Z</time>
      </trkpt>
      <trkpt lat="51.2273313359" lon="4.461321176445">
        <ele>4.2</ele>
        <time>2019-04-23T21:18:52Z</time>
      </trkpt>
      <trkpt lat="51.227405683353" lon="4.461084052494">
        <ele>3.2</ele>
        <time>2019-04-23T21:19:08Z</time>
      </trkpt>
      <trkpt lat="51.227418172384" lon="4.460965616247">
        <ele>4.8</ele>
        <time>2019-04-23T21:19:19Z</time>
      </trkpt>
      <trkpt lat="51.227349273166" lon="4.460265057045">
        <ele>1.8</ele>
        <time>2019-04-23T21:20:12Z</time>
      </trkpt>
      <trkpt lat="51.227322786362" lon="4.46018584809">
        <ele>0</ele>
        <time>2019-04-23T21:20:25Z</time>
      </trkpt>
      <trkpt lat="51.227235949878" lon="4.460030363845">
        <ele>0</ele>
        <time>2019-04-23T21:20:48Z</time>
      </trkpt>
      <trkpt lat="51.227087757886" lon="4.459347741909">
        <ele>1.2</ele>
        <time>2019-04-23T21:21:31Z</time>
      </trkpt>
      <trkpt lat="51.227102007116" lon="4.459174236579">
        <ele>0</ele>
        <time>2019-04-23T21:21:50Z</time>
      </trkpt>
      <trkpt lat="51.227527388541" lon="4.458903165933">
        <ele>9.2</ele>
        <time>2019-04-23T21:22:38Z</time>
      </trkpt>
      <trkpt lat="51.22795830202" lon="4.458690852406">
        <ele>9.6</ele>
        <time>2019-04-23T21:23:21Z</time>
      </trkpt>
      <trkpt lat="51.228372703156" lon="4.458403269417">
        <ele>9</ele>
        <time>2019-04-23T21:24:07Z</time>
      </trkpt>
      <trkpt lat="51.228766820094" lon="4.458133372237">
        <ele>5.8</ele>
        <time>2019-04-23T21:24:51Z</time>
      </trkpt>
      <trkpt lat="51.228951808627" lon="4.458128594554">
        <ele>7.8</ele>
        <time>2019-04-23T21:25:15Z</time>
      </trkpt>
      <trkpt lat="51.229296220898" lon="4.458047457762">
        <ele>7.8</ele>
        <time>2019-04-23T21:25:50Z</time>
      </trkpt>
      <trkpt lat="51.229736354467" lon="4.457926004031">
        <ele>17.8</ele>
        <time>2019-04-23T21:26:34Z</time>
      </trkpt>
      <trkpt lat="51.229834338878" lon="4.457898259942">
        <ele>10.2</ele>
        <time>2019-04-23T21:26:48Z</time>
      </trkpt>
      <trkpt lat="51.229759488511" lon="4.457969086997">
        <ele>1</ele>
        <time>2019-04-23T21:27:06Z</time>
      </trkpt>
      <trkpt lat="51.229694025872" lon="4.457951652645">
        <ele>0</ele>
        <time>2019-04-23T21:27:24Z</time>
      </trkpt>
    </trkseg>
  </trk>
</gpx>